createdAt,value
2019-04-05T00:00:09.212Z,4.37
2019-04-05T00:02:38.771Z,4.30
2019-04-05T00:05:08.240Z,4.33
2019-04-05T00:07:37.535Z,4.23
2019-04-05T00:10:07.568Z,3.60
2019-04-05T00:12:36.885Z,4.30
2019-04-05T00:15:15.338Z,4.33
2019-04-05T00:17:40.577Z,3.80
2019-04-05T00:20:10.207Z,4.53
2019-04-05T00:22:39.508Z,4.80
2019-04-05T00:25:09.784Z,5.20
2019-04-05T00:27:39.079Z,4.87
2019-04-05T00:30:09.133Z,5.27
2019-04-05T00:32:38.433Z,5.43
2019-04-05T00:35:07.869Z,6.00
2019-04-05T00:37:37.163Z,6.33
2019-04-05T00:40:08.576Z,6.03
2019-04-05T00:42:37.876Z,8.03
2019-04-05T00:45:08.114Z,9.53
2019-04-05T00:47:37.427Z,8.60
2019-04-05T00:50:08.063Z,9.73
2019-04-05T00:52:37.431Z,9.97
2019-04-05T00:55:07.317Z,10.93
2019-04-05T00:57:36.741Z,11.67
2019-04-05T01:00:07.096Z,9.97
2019-04-05T01:02:37.369Z,12.90
2019-04-05T01:05:07.316Z,12.07
2019-04-05T01:07:36.786Z,13.07
2019-04-05T01:10:07.024Z,12.27
2019-04-05T01:12:38.032Z,13.17
2019-04-05T01:15:09.267Z,14.73
2019-04-05T01:17:39.131Z,14.23
2019-04-05T01:20:09.367Z,14.87
2019-04-05T01:22:40.334Z,16.47
2019-04-05T01:25:09.981Z,15.97
2019-04-05T01:27:42.032Z,16.23
2019-04-05T01:30:14.049Z,16.90
2019-04-05T01:32:43.535Z,16.80
2019-04-05T01:35:13.755Z,16.23
2019-04-05T01:37:43.313Z,18.17
2019-04-05T01:40:13.753Z,16.90
2019-04-05T01:42:43.392Z,17.30
2019-04-05T01:45:32.216Z,17.90
2019-04-05T01:48:01.528Z,19.73
2019-04-05T01:50:31.304Z,19.00
2019-04-05T01:53:00.793Z,19.43
2019-04-05T01:55:30.189Z,18.53
2019-04-05T01:57:59.532Z,20.43
2019-04-05T02:00:28.838Z,21.77
2019-04-05T02:02:58.136Z,21.83
2019-04-05T02:05:27.783Z,21.47
2019-04-05T02:07:57.144Z,23.30
2019-04-05T02:10:26.616Z,23.73
2019-04-05T02:12:55.924Z,23.67
2019-04-05T02:15:28.136Z,24.07
2019-04-05T02:17:59.039Z,23.37
2019-04-05T02:20:28.420Z,23.57
2019-04-05T02:22:57.789Z,23.70
2019-04-05T02:25:27.292Z,25.13
2019-04-05T02:27:56.820Z,25.57
2019-04-05T02:30:26.970Z,24.00
2019-04-05T02:32:56.273Z,25.73
2019-04-05T02:35:26.010Z,24.37
2019-04-05T02:37:55.335Z,22.17
2019-04-05T02:40:26.623Z,24.60
2019-04-05T02:42:58.777Z,24.73
2019-04-05T02:45:31.287Z,22.60
2019-04-05T02:48:03.825Z,23.67
2019-04-05T02:50:36.541Z,21.73
2019-04-05T02:53:09.266Z,22.20
2019-04-05T02:55:40.811Z,20.83
2019-04-05T02:58:13.547Z,20.13
2019-04-05T03:00:44.415Z,18.80
2019-04-05T03:03:14.641Z,18.27
2019-04-05T03:05:46.336Z,17.27
2019-04-05T03:08:17.087Z,16.93
2019-04-05T03:11:06.525Z,17.10
2019-04-05T03:13:38.910Z,16.87
2019-04-05T03:16:14.159Z,14.93
2019-04-05T03:18:48.792Z,15.00
2019-04-05T03:21:20.333Z,16.30
2019-04-05T03:23:51.316Z,17.80
2019-04-05T03:26:23.717Z,14.17
2019-04-05T03:28:56.130Z,14.93
2019-04-05T03:31:26.258Z,13.73
2019-04-05T03:33:56.398Z,13.60
2019-04-05T03:36:26.870Z,15.23
2019-04-05T03:38:56.341Z,14.10
2019-04-05T03:41:26.299Z,14.23
2019-04-05T03:43:56.929Z,13.67
2019-04-05T03:46:26.602Z,13.53
2019-04-05T03:48:56.261Z,12.23
2019-04-05T03:51:25.777Z,12.63
2019-04-05T03:53:55.211Z,12.33
2019-04-05T03:56:24.821Z,11.87
2019-04-05T03:58:54.344Z,11.57
2019-04-05T04:01:23.644Z,12.60
2019-04-05T04:03:53.350Z,11.77
2019-04-05T04:06:23.229Z,12.47
2019-04-05T04:08:53.352Z,12.37
2019-04-05T04:11:22.739Z,12.47
2019-04-05T04:13:52.213Z,12.13
2019-04-05T04:16:22.418Z,11.57
2019-04-05T04:18:52.932Z,11.67
2019-04-05T04:21:34.236Z,11.53
2019-04-05T04:24:03.674Z,12.17
2019-04-05T04:26:33.517Z,12.23
2019-04-05T04:29:03.067Z,11.77
2019-04-05T04:31:33.551Z,11.03
2019-04-05T04:34:03.820Z,13.17
2019-04-05T04:36:33.489Z,13.17
2019-04-05T04:39:04.341Z,12.50
2019-04-05T04:41:33.657Z,14.40
2019-04-05T04:44:04.594Z,14.17
2019-04-05T04:46:34.356Z,13.20
2019-04-05T04:49:04.495Z,14.20
2019-04-05T04:51:34.449Z,13.63
2019-04-05T04:54:04.261Z,15.33
2019-04-05T04:56:33.630Z,14.53
2019-04-05T04:59:02.951Z,15.00
2019-04-05T05:01:32.275Z,14.47
2019-04-05T05:04:01.586Z,13.77
2019-04-05T05:06:31.061Z,14.97
2019-04-05T05:09:00.523Z,14.67
2019-04-05T05:11:31.001Z,14.07
2019-04-05T05:14:00.297Z,14.77
2019-04-05T05:16:29.764Z,14.37
2019-04-05T05:19:01.144Z,13.80
2019-04-05T05:21:30.624Z,14.50
2019-04-05T05:24:00.029Z,15.87
2019-04-05T05:26:29.805Z,15.87
2019-04-05T05:28:59.560Z,15.80
2019-04-05T05:31:29.124Z,15.50
2019-04-05T05:33:58.441Z,15.07
2019-04-05T05:36:28.712Z,15.77
2019-04-05T05:38:58.183Z,16.13
2019-04-05T05:41:27.496Z,15.87
2019-04-05T05:43:56.798Z,15.50
2019-04-05T05:46:26.104Z,17.43
2019-04-05T05:48:56.373Z,16.60
2019-04-05T05:51:25.675Z,16.50
2019-04-05T05:53:54.996Z,16.20
2019-04-05T05:56:24.291Z,14.67
2019-04-05T05:58:58.894Z,15.90
2019-04-05T06:01:24.611Z,16.23
2019-04-05T06:03:54.946Z,16.17
2019-04-05T06:06:24.242Z,16.47
2019-04-05T06:08:53.539Z,15.80
2019-04-05T06:11:22.846Z,17.63
2019-04-05T06:13:52.144Z,16.70
2019-04-05T06:16:21.456Z,17.97
2019-04-05T06:18:50.763Z,17.77
2019-04-05T06:21:21.177Z,19.47
2019-04-05T06:23:50.484Z,19.87
2019-04-05T06:26:19.796Z,16.40
2019-04-05T06:28:49.209Z,16.27
2019-04-05T06:31:18.748Z,17.77
2019-04-05T06:33:49.147Z,17.63
2019-04-05T06:36:18.528Z,17.37
2019-04-05T06:38:47.824Z,16.50
2019-04-05T06:41:17.392Z,18.63
2019-04-05T06:43:46.683Z,17.90
2019-04-05T06:46:16.010Z,17.97
2019-04-05T06:48:45.313Z,17.23
2019-04-05T06:51:14.625Z,20.23
2019-04-05T06:53:43.932Z,18.63
2019-04-05T06:56:13.235Z,18.83
2019-04-05T06:58:46.223Z,19.03
2019-04-05T07:01:14.599Z,18.67
2019-04-05T07:03:43.922Z,19.57
2019-04-05T07:06:13.220Z,18.33
2019-04-05T07:08:53.081Z,18.67
2019-04-05T07:11:13.624Z,18.13
2019-04-05T07:13:44.968Z,18.37
2019-04-05T07:16:14.266Z,17.47
2019-04-05T07:18:43.565Z,18.87
2019-04-05T07:21:12.869Z,17.13
2019-04-05T07:23:43.306Z,18.80
2019-04-05T07:26:12.612Z,19.00
2019-04-05T07:28:41.915Z,19.17
2019-04-05T07:31:11.621Z,18.73
2019-04-05T07:33:40.925Z,17.97
2019-04-05T07:36:10.228Z,19.13
2019-04-05T07:38:39.536Z,17.83
2019-04-05T07:41:08.836Z,17.27
2019-04-05T07:43:38.152Z,16.77
2019-04-05T07:46:07.456Z,17.20
2019-04-05T07:48:44.578Z,18.43
2019-04-05T07:51:07.768Z,18.70
2019-04-05T07:53:37.071Z,17.83
2019-04-05T07:56:06.382Z,18.73
2019-04-05T07:58:35.680Z,17.57
2019-04-05T08:01:05.779Z,17.63
2019-04-05T08:03:35.111Z,17.47
2019-04-05T08:06:04.654Z,15.73
2019-04-05T08:08:37.032Z,16.67
2019-04-05T08:11:06.329Z,16.90
2019-04-05T08:13:38.293Z,15.93
2019-04-05T08:16:07.760Z,17.67
2019-04-05T08:18:37.079Z,16.50
2019-04-05T08:21:06.384Z,16.97
2019-04-05T08:23:35.688Z,16.97
2019-04-05T08:26:05.015Z,16.50
2019-04-05T08:28:34.322Z,16.07
2019-04-05T08:31:03.641Z,16.57
2019-04-05T08:33:32.936Z,17.87
2019-04-05T08:36:02.239Z,15.57
2019-04-05T08:38:31.607Z,15.70
2019-04-05T08:41:00.929Z,15.43
2019-04-05T08:43:30.233Z,16.37
2019-04-05T08:45:59.610Z,16.00
2019-04-05T08:48:28.916Z,15.27
2019-04-05T08:50:58.215Z,15.90
2019-04-05T08:53:27.606Z,15.00
2019-04-05T08:55:57.016Z,15.13
2019-04-05T08:58:33.427Z,14.97
2019-04-05T09:00:57.324Z,15.57
2019-04-05T09:03:26.624Z,15.33
2019-04-05T09:05:55.940Z,15.50
2019-04-05T09:08:25.412Z,15.10
2019-04-05T09:10:54.805Z,13.93
2019-04-05T09:13:24.228Z,14.70
2019-04-05T09:15:53.532Z,14.43
2019-04-05T09:18:23.379Z,14.03
2019-04-05T09:20:52.669Z,27.47
2019-04-05T09:23:22.595Z,19.07
2019-04-05T09:25:51.897Z,15.30
2019-04-05T09:28:21.915Z,16.73
2019-04-05T09:30:51.931Z,15.30
2019-04-05T09:33:21.491Z,14.33
2019-04-05T09:35:50.804Z,17.03
2019-04-05T09:38:20.111Z,15.80
2019-04-05T09:40:49.761Z,16.60
2019-04-05T09:43:19.963Z,14.87
2019-04-05T09:45:49.265Z,15.60
2019-04-05T09:48:18.563Z,15.73
2019-04-05T09:50:47.873Z,15.37
2019-04-05T09:53:29.765Z,14.57
2019-04-05T09:55:59.964Z,14.63
2019-04-05T09:58:29.268Z,15.10
2019-04-05T10:00:58.585Z,15.30
2019-04-05T10:03:27.883Z,16.33
2019-04-05T10:05:57.187Z,16.50
2019-04-05T10:08:26.498Z,27.63
2019-04-05T10:10:55.889Z,16.93
2019-04-05T10:13:26.164Z,15.80
2019-04-05T10:15:55.461Z,14.37
2019-04-05T10:18:24.764Z,15.97
2019-04-05T10:20:54.141Z,15.67
2019-04-05T10:23:23.454Z,15.87
2019-04-05T10:25:52.839Z,16.93
2019-04-05T10:28:22.182Z,16.37
2019-04-05T10:30:52.215Z,15.37
2019-04-05T10:33:22.677Z,14.87
2019-04-05T10:35:51.989Z,14.97
2019-04-05T10:38:21.293Z,15.33
2019-04-05T10:40:50.594Z,15.97
2019-04-05T10:43:19.915Z,14.43
2019-04-05T10:45:49.218Z,15.50
2019-04-05T10:48:18.520Z,15.37
2019-04-05T10:50:47.826Z,17.10
2019-04-05T10:53:17.144Z,15.90
2019-04-05T10:55:46.466Z,17.73
2019-04-05T10:58:15.757Z,17.53
2019-04-05T11:00:45.064Z,19.33
2019-04-05T11:03:14.400Z,18.13
2019-04-05T11:05:43.698Z,18.67
2019-04-05T11:08:13.525Z,18.47
2019-04-05T11:10:42.824Z,17.90
2019-04-05T11:13:12.124Z,18.23
2019-04-05T11:15:41.429Z,17.17
2019-04-05T11:18:10.729Z,17.27
2019-04-05T11:20:40.047Z,17.77
2019-04-05T11:23:09.353Z,18.03
2019-04-05T11:25:38.651Z,17.93
2019-04-05T11:28:07.959Z,18.33
2019-04-05T11:30:42.736Z,20.37
2019-04-05T11:33:12.497Z,22.67
2019-04-05T11:35:42.617Z,19.27
2019-04-05T11:38:13.659Z,20.53
2019-04-05T11:40:43.893Z,20.57
2019-04-05T11:43:13.313Z,18.13
2019-04-05T11:45:43.554Z,18.57
2019-04-05T11:48:13.124Z,19.50
2019-04-05T11:50:42.420Z,19.73
2019-04-05T11:53:11.721Z,20.33
2019-04-05T11:55:41.035Z,20.40
2019-04-05T11:58:10.353Z,20.63
2019-04-05T12:00:41.295Z,18.90
2019-04-05T12:03:12.144Z,22.90
2019-04-05T12:05:41.433Z,21.33
2019-04-05T12:08:10.756Z,19.00
2019-04-05T12:10:41.034Z,25.97
2019-04-05T12:13:10.340Z,22.33
2019-04-05T12:15:39.655Z,20.10
2019-04-05T12:18:08.967Z,21.80
2019-04-05T12:20:49.568Z,20.20
2019-04-05T12:23:09.256Z,20.90
2019-04-05T12:25:38.584Z,25.77
2019-04-05T12:28:10.557Z,29.27
2019-04-05T12:30:39.876Z,21.73
2019-04-05T12:33:14.502Z,25.73
2019-04-05T12:35:40.544Z,21.40
2019-04-05T12:38:11.016Z,21.03
2019-04-05T12:40:40.784Z,22.57
2019-04-05T12:43:13.415Z,22.50
2019-04-05T12:45:44.480Z,21.83
2019-04-05T12:48:15.622Z,20.60
2019-04-05T12:50:45.000Z,23.67
2019-04-05T12:53:15.200Z,22.90
2019-04-05T12:55:44.505Z,29.40
2019-04-05T12:58:13.972Z,138.30
2019-04-05T13:00:43.272Z,38.30
2019-04-05T13:03:12.576Z,35.83
2019-04-05T13:05:41.906Z,23.47
2019-04-05T13:08:11.209Z,22.90
2019-04-05T13:10:40.513Z,25.00
2019-04-05T13:13:09.891Z,22.63
2019-04-05T13:15:40.298Z,21.73
2019-04-05T13:18:09.998Z,24.43
2019-04-05T13:20:39.301Z,21.67
2019-04-05T13:23:08.596Z,23.60
2019-04-05T13:25:40.720Z,22.17
2019-04-05T13:28:13.640Z,24.23
2019-04-05T13:30:41.312Z,22.13
2019-04-05T13:33:10.688Z,22.67
2019-04-05T13:35:40.680Z,82.37
2019-04-05T13:38:10.017Z,44.67
2019-04-05T13:40:39.312Z,24.63
2019-04-05T13:43:08.623Z,25.97
2019-04-05T13:45:37.931Z,29.40
2019-04-05T13:48:09.081Z,24.57
2019-04-05T13:50:41.389Z,22.30
2019-04-05T13:53:11.824Z,23.70
2019-04-05T13:55:41.399Z,23.33
2019-04-05T14:00:41.801Z,23.23
2019-04-05T14:03:11.121Z,23.93
2019-04-05T14:05:41.244Z,23.27
2019-04-05T14:08:11.042Z,22.90
2019-04-05T14:10:41.888Z,23.10
2019-04-05T14:13:11.373Z,23.20
2019-04-05T14:15:42.350Z,23.57
2019-04-05T14:18:14.334Z,32.50
2019-04-05T14:20:42.701Z,33.83
2019-04-05T14:23:12.000Z,24.43
2019-04-05T14:25:41.305Z,24.77
2019-04-05T14:28:10.614Z,22.17
2019-04-05T14:30:39.931Z,22.83
2019-04-05T14:33:09.233Z,24.07
2019-04-05T14:35:38.629Z,24.40
2019-04-05T14:38:08.166Z,24.57
2019-04-05T14:40:37.476Z,25.20
2019-04-05T14:43:06.780Z,24.83
2019-04-05T14:45:36.081Z,25.23
2019-04-05T14:48:05.423Z,23.50
2019-04-05T14:50:34.720Z,23.87
2019-04-05T14:53:04.665Z,25.30
2019-04-05T14:55:33.971Z,25.43
2019-04-05T14:58:05.524Z,25.70
2019-04-05T15:00:34.411Z,27.67
2019-04-05T15:03:03.784Z,25.57
2019-04-05T15:05:33.093Z,25.57
2019-04-05T15:08:02.893Z,27.07
2019-04-05T15:10:32.196Z,27.93
2019-04-05T15:13:01.601Z,31.83
2019-04-05T15:15:31.889Z,27.63
2019-04-05T15:18:01.188Z,26.87
2019-04-05T15:20:30.538Z,27.83
2019-04-05T15:23:00.960Z,27.33
2019-04-05T15:25:30.272Z,26.77
2019-04-05T15:27:59.741Z,28.17
2019-04-05T15:30:29.039Z,116.90
2019-04-05T15:33:00.032Z,34.13
2019-04-05T15:35:29.756Z,29.77
2019-04-05T15:38:01.332Z,29.07
2019-04-05T15:40:31.696Z,30.50
2019-04-05T15:43:01.180Z,34.63
2019-04-05T15:45:30.532Z,31.93
2019-04-05T15:47:59.845Z,34.67
2019-04-05T15:50:29.154Z,29.73
2019-04-05T15:52:59.728Z,31.10
2019-04-05T15:55:29.502Z,32.40
2019-04-05T15:58:01.463Z,30.00
2019-04-05T16:00:40.594Z,32.47
2019-04-05T16:03:11.135Z,31.23
2019-04-05T16:05:40.737Z,27.73
2019-04-05T16:08:10.045Z,38.73
2019-04-05T16:10:39.359Z,94.97
2019-04-05T16:13:08.727Z,31.33
2019-04-05T16:15:38.064Z,28.90
2019-04-05T16:18:07.379Z,29.63
2019-04-05T16:20:36.683Z,27.80
2019-04-05T16:23:06.037Z,27.90
2019-04-05T16:25:36.184Z,31.10
2019-04-05T16:28:05.493Z,31.57
2019-04-05T16:30:35.760Z,30.90
2019-04-05T16:33:05.157Z,32.20
2019-04-05T16:35:34.448Z,30.80
2019-04-05T16:38:03.752Z,31.67
2019-04-05T16:40:34.440Z,30.43
2019-04-05T16:43:03.819Z,31.37
2019-04-05T16:45:33.137Z,30.10
2019-04-05T16:48:02.849Z,31.73
2019-04-05T16:50:32.147Z,30.80
2019-04-05T16:53:01.508Z,28.97
2019-04-05T16:55:30.806Z,32.37
2019-04-05T16:58:00.125Z,33.87
2019-04-05T17:00:30.597Z,39.20
2019-04-05T17:02:59.895Z,40.73
2019-04-05T17:05:29.208Z,33.60
2019-04-05T17:08:10.424Z,32.17
2019-04-05T17:10:39.719Z,30.97
2019-04-05T17:13:09.156Z,32.43
2019-04-05T17:15:38.469Z,31.60
2019-04-05T17:18:08.840Z,30.97
2019-04-05T17:20:38.747Z,71.47
2019-04-05T17:23:08.047Z,48.60
2019-04-05T17:25:37.355Z,33.47
2019-04-05T17:28:06.669Z,32.07
2019-04-05T17:30:36.446Z,32.90
2019-04-05T17:33:05.926Z,33.17
2019-04-05T17:35:35.226Z,34.00
2019-04-05T17:38:04.533Z,36.23
2019-04-05T17:40:33.932Z,101.63
2019-04-05T17:43:03.233Z,89.57
2019-04-05T17:45:32.656Z,36.70
2019-04-05T17:48:01.954Z,36.37
2019-04-05T17:50:33.897Z,40.37
2019-04-05T17:53:11.962Z,34.00
2019-04-05T17:55:34.641Z,32.63
2019-04-05T17:58:05.884Z,32.90
2019-04-05T18:00:36.328Z,34.67
2019-04-05T18:03:05.657Z,35.50
2019-04-05T18:05:35.141Z,36.20
2019-04-05T18:08:04.508Z,36.93
2019-04-05T18:10:33.918Z,33.77
2019-04-05T18:13:03.246Z,35.60
2019-04-05T18:15:32.961Z,35.23
2019-04-05T18:18:02.263Z,39.03
2019-04-05T18:20:31.577Z,37.13
2019-04-05T18:23:00.886Z,35.33
2019-04-05T18:25:30.196Z,37.70
2019-04-05T18:27:59.504Z,38.13
2019-04-05T18:30:28.817Z,39.30
2019-04-05T18:32:58.123Z,36.30
2019-04-05T18:35:28.408Z,36.60
2019-04-05T18:37:57.708Z,35.93
2019-04-05T18:40:39.253Z,36.43
2019-04-05T18:42:59.040Z,34.33
2019-04-05T18:45:28.343Z,35.80
2019-04-05T18:47:57.725Z,34.63
2019-04-05T18:50:27.032Z,35.50
2019-04-05T18:52:56.335Z,35.93
2019-04-05T18:55:25.652Z,36.63
2019-04-05T18:57:54.960Z,36.57
2019-04-05T19:00:25.932Z,35.27
2019-04-05T19:02:55.231Z,37.83
2019-04-05T19:05:24.536Z,35.00
2019-04-05T19:07:53.907Z,34.80
2019-04-05T19:10:36.230Z,36.13
2019-04-05T19:12:54.332Z,34.90
2019-04-05T19:15:23.801Z,35.43
2019-04-05T19:17:53.132Z,35.10
2019-04-05T19:20:22.735Z,35.00
2019-04-05T19:22:52.080Z,33.67
2019-04-05T19:25:21.393Z,36.00
2019-04-05T19:27:50.691Z,33.53
2019-04-05T19:50:31.775Z,34.73
2019-04-05T19:53:01.084Z,34.67
2019-04-05T19:55:30.395Z,35.40
2019-04-05T19:57:59.703Z,36.00
2019-04-05T20:00:29.014Z,33.93
2019-04-05T20:02:58.312Z,34.27
2019-04-05T20:05:27.615Z,33.87
2019-04-05T20:07:56.940Z,35.73
2019-04-05T20:10:26.244Z,35.73
2019-04-05T20:12:55.553Z,34.27
2019-04-05T20:15:24.857Z,35.37
2019-04-05T20:17:54.169Z,36.33
2019-04-05T20:20:23.486Z,35.10
2019-04-05T20:22:52.808Z,36.77
2019-04-05T20:25:22.184Z,36.40
2019-04-05T20:27:51.496Z,35.10
2019-04-05T20:30:20.886Z,36.40
2019-04-05T20:32:50.292Z,36.33
2019-04-05T20:35:19.596Z,36.07
2019-04-05T20:37:48.900Z,36.20
2019-04-05T20:40:18.216Z,35.17
2019-04-05T20:42:47.515Z,34.83
2019-04-05T20:45:16.842Z,34.33
2019-04-05T20:47:48.584Z,35.57
2019-04-05T20:50:18.292Z,35.43
2019-04-05T20:52:47.591Z,36.43
2019-04-05T20:55:16.931Z,34.53
2019-04-05T20:57:46.235Z,33.03
2019-04-05T21:00:17.363Z,34.70
2019-04-05T21:02:46.684Z,33.93
2019-04-05T21:05:24.699Z,31.83
2019-04-05T21:07:48.329Z,34.70
2019-04-05T21:10:17.629Z,35.57
2019-04-05T21:12:46.952Z,36.03
2019-04-05T21:15:16.247Z,36.70
2019-04-05T21:17:45.551Z,36.10
2019-04-05T21:20:15.140Z,34.90
2019-04-05T21:22:44.453Z,37.47
2019-04-05T21:25:14.316Z,32.80
2019-04-05T21:27:43.800Z,36.53
2019-04-05T21:30:13.740Z,39.67
2019-04-05T21:32:43.044Z,38.53
2019-04-05T21:35:13.430Z,36.03
2019-04-05T21:37:42.733Z,37.27
2019-04-05T21:40:12.516Z,35.90
2019-04-05T21:42:41.828Z,35.37
2019-04-05T21:45:11.303Z,37.40
2019-04-05T21:47:40.624Z,40.23
2019-04-05T21:50:11.476Z,38.57
2019-04-05T21:52:40.786Z,35.97
2019-04-05T21:55:10.155Z,36.37
2019-04-05T21:57:39.485Z,36.47
2019-04-05T22:00:14.607Z,39.77
2019-04-05T22:02:46.332Z,37.47
2019-04-05T22:05:15.641Z,38.77
2019-04-05T22:07:44.952Z,36.97
2019-04-05T22:10:14.432Z,37.93
2019-04-05T22:12:43.742Z,36.50
2019-04-05T22:15:13.056Z,39.27
2019-04-05T22:17:42.361Z,37.60
2019-04-05T22:20:11.673Z,37.13
2019-04-05T22:22:40.980Z,36.13
2019-04-05T22:25:10.640Z,38.97
2019-04-05T22:27:39.951Z,39.47
2019-04-05T22:30:10.592Z,38.90
2019-04-05T22:32:39.914Z,38.70
2019-04-05T22:35:09.235Z,38.30
2019-04-05T22:37:38.540Z,39.63
2019-04-05T22:40:07.912Z,40.50
2019-04-05T22:42:38.313Z,36.63
2019-04-05T22:45:08.187Z,40.37
2019-04-05T22:47:37.509Z,40.27
2019-04-05T22:50:07.347Z,38.63
2019-04-05T22:52:38.352Z,37.57
2019-04-05T22:55:11.519Z,39.90
2019-04-05T22:57:38.911Z,39.17
2019-04-05T23:00:09.848Z,40.57
2019-04-05T23:02:40.777Z,37.80
2019-04-05T23:05:10.486Z,39.50
2019-04-05T23:07:39.799Z,40.13
2019-04-05T23:10:09.532Z,39.87
2019-04-05T23:12:38.843Z,39.70
2019-04-05T23:15:08.697Z,41.57
2019-04-05T23:17:38.004Z,36.60
2019-04-05T23:20:08.449Z,40.13
2019-04-05T23:22:37.747Z,38.93
2019-04-05T23:25:07.904Z,37.87
2019-04-05T23:27:37.309Z,38.00
2019-04-05T23:30:07.368Z,38.77
2019-04-05T23:32:36.675Z,35.90
2019-04-05T23:35:07.211Z,37.27
2019-04-05T23:37:36.553Z,37.53
2019-04-05T23:40:06.328Z,36.90
2019-04-05T23:42:35.625Z,36.57
2019-04-05T23:45:06.379Z,36.63
2019-04-05T23:47:35.686Z,38.80
2019-04-05T23:50:05.851Z,36.40
2019-04-05T23:52:35.168Z,35.93
2019-04-05T23:55:06.460Z,36.07
2019-04-05T23:57:35.769Z,34.77
